sensor_id;sensor_type;location;lat;lon;timestamp;P1;durP1;ratioP1;P2;durP2;ratioP2
3811;SDS011;1921;49.368;11.068;2023-03-24T00:00:08;53.17;;;47.57;;
3811;SDS011;1921;49.368;11.068;2023-03-24T00:02:39;52.77;;;47.23;;
3811;SDS011;1921;49.368;11.068;2023-03-24T00:05:16;53.73;;;48.13;;
3811;SDS011;1921;49.368;11.068;2023-03-24T00:07:46;53.10;;;47.50;;
3811;SDS011;1921;49.368;11.068;2023-03-24T00:10:14;53.27;;;47.63;;
3811;SDS011;1921;49.368;11.068;2023-03-24T00:12:43;53.60;;;47.90;;
3811;SDS011;1921;49.368;11.068;2023-03-24T00:15:13;53.27;;;47.63;;
3811;SDS011;1921;49.368;11.068;2023-03-24T00:17:43;52.73;;;47.33;;
3811;SDS011;1921;49.368;11.068;2023-03-24T00:20:14;52.43;;;46.93;;
3811;SDS011;1921;49.368;11.068;2023-03-24T00:22:42;52.40;;;47.10;;
3811;SDS011;1921;49.368;11.068;2023-03-24T00:25:12;52.47;;;47.10;;
3811;SDS011;1921;49.368;11.068;2023-03-24T00:27:39;53.30;;;47.80;;
3811;SDS011;1921;49.368;11.068;2023-03-24T00:30:06;53.77;;;47.90;;
3811;SDS011;1921;49.368;11.068;2023-03-24T00:32:35;53.30;;;47.70;;
3811;SDS011;1921;49.368;11.068;2023-03-24T00:35:06;52.50;;;47.20;;
3811;SDS011;1921;49.368;11.068;2023-03-24T00:37:34;52.90;;;47.40;;
3811;SDS011;1921;49.368;11.068;2023-03-24T00:40:02;53.20;;;47.60;;
3811;SDS011;1921;49.368;11.068;2023-03-24T00:42:32;53.27;;;47.70;;
3811;SDS011;1921;49.368;11.068;2023-03-24T00:45:01;52.27;;;46.97;;
3811;SDS011;1921;49.368;11.068;2023-03-24T00:47:32;53.13;;;47.60;;
3811;SDS011;1921;49.368;11.068;2023-03-24T00:50:03;52.63;;;47.20;;
3811;SDS011;1921;49.368;11.068;2023-03-24T00:52:41;52.90;;;47.40;;
3811;SDS011;1921;49.368;11.068;2023-03-24T00:55:08;52.93;;;47.50;;
3811;SDS011;1921;49.368;11.068;2023-03-24T00:57:40;53.20;;;47.60;;
3811;SDS011;1921;49.368;11.068;2023-03-24T01:00:14;52.30;;;47.03;;
3811;SDS011;1921;49.368;11.068;2023-03-24T01:02:48;52.70;;;47.20;;
3811;SDS011;1921;49.368;11.068;2023-03-24T01:05:20;51.87;;;46.57;;
3811;SDS011;1921;49.368;11.068;2023-03-24T01:07:57;52.50;;;47.20;;
3811;SDS011;1921;49.368;11.068;2023-03-24T01:10:27;52.37;;;46.90;;
3811;SDS011;1921;49.368;11.068;2023-03-24T01:12:57;52.00;;;46.80;;
3811;SDS011;1921;49.368;11.068;2023-03-24T01:15:26;52.40;;;47.10;;
3811;SDS011;1921;49.368;11.068;2023-03-24T01:17:57;52.57;;;47.07;;
3811;SDS011;1921;49.368;11.068;2023-03-24T01:20:26;52.10;;;46.87;;
3811;SDS011;1921;49.368;11.068;2023-03-24T01:22:57;51.77;;;46.67;;
3811;SDS011;1921;49.368;11.068;2023-03-24T01:25:24;52.33;;;46.93;;
3811;SDS011;1921;49.368;11.068;2023-03-24T01:27:51;52.23;;;47.00;;
3811;SDS011;1921;49.368;11.068;2023-03-24T01:30:18;51.57;;;46.20;;
3811;SDS011;1921;49.368;11.068;2023-03-24T01:32:47;52.00;;;46.80;;
3811;SDS011;1921;49.368;11.068;2023-03-24T01:35:14;51.00;;;45.90;;
3811;SDS011;1921;49.368;11.068;2023-03-24T01:37:40;51.90;;;46.80;;
3811;SDS011;1921;49.368;11.068;2023-03-24T01:40:06;51.97;;;46.87;;
3811;SDS011;1921;49.368;11.068;2023-03-24T01:42:35;52.33;;;47.03;;
3811;SDS011;1921;49.368;11.068;2023-03-24T01:48:03;53.10;;;47.60;;
3811;SDS011;1921;49.368;11.068;2023-03-24T01:51:00;52.13;;;46.83;;
3811;SDS011;1921;49.368;11.068;2023-03-24T01:53:26;52.83;;;47.43;;
3811;SDS011;1921;49.368;11.068;2023-03-24T01:55:54;52.10;;;46.70;;
3811;SDS011;1921;49.368;11.068;2023-03-24T01:58:20;51.70;;;46.60;;
3811;SDS011;1921;49.368;11.068;2023-03-24T02:00:48;52.53;;;47.07;;
3811;SDS011;1921;49.368;11.068;2023-03-24T02:03:15;53.93;;;48.10;;
3811;SDS011;1921;49.368;11.068;2023-03-24T02:05:45;52.93;;;47.50;;
3811;SDS011;1921;49.368;11.068;2023-03-24T02:08:23;52.27;;;46.97;;
3811;SDS011;1921;49.368;11.068;2023-03-24T02:11:16;52.70;;;47.30;;
3811;SDS011;1921;49.368;11.068;2023-03-24T02:13:44;52.30;;;46.70;;
3811;SDS011;1921;49.368;11.068;2023-03-24T02:28:11;53.00;;;47.50;;
3811;SDS011;1921;49.368;11.068;2023-03-24T02:47:40;52.63;;;47.30;;
3811;SDS011;1921;49.368;11.068;2023-03-24T02:50:27;53.17;;;47.47;;
3811;SDS011;1921;49.368;11.068;2023-03-24T02:55:51;52.73;;;47.40;;
3811;SDS011;1921;49.368;11.068;2023-03-24T03:01:21;52.60;;;47.20;;
3811;SDS011;1921;49.368;11.068;2023-03-24T03:04:10;51.77;;;46.60;;
3811;SDS011;1921;49.368;11.068;2023-03-24T03:06:50;52.97;;;47.53;;
3811;SDS011;1921;49.368;11.068;2023-03-24T03:09:20;52.43;;;47.10;;
3811;SDS011;1921;49.368;11.068;2023-03-24T03:11:48;53.73;;;47.67;;
3811;SDS011;1921;49.368;11.068;2023-03-24T03:14:19;53.40;;;47.90;;
3811;SDS011;1921;49.368;11.068;2023-03-24T03:17:00;52.00;;;46.70;;
3811;SDS011;1921;49.368;11.068;2023-03-24T03:19:42;52.63;;;47.20;;
3811;SDS011;1921;49.368;11.068;2023-03-24T03:22:17;53.50;;;47.90;;
3811;SDS011;1921;49.368;11.068;2023-03-24T03:24:49;53.40;;;47.90;;
3811;SDS011;1921;49.368;11.068;2023-03-24T03:27:19;53.67;;;48.13;;
3811;SDS011;1921;49.368;11.068;2023-03-24T03:29:59;53.37;;;47.77;;
3811;SDS011;1921;49.368;11.068;2023-03-24T03:32:38;53.07;;;47.57;;
3811;SDS011;1921;49.368;11.068;2023-03-24T03:35:18;52.10;;;46.90;;
3811;SDS011;1921;49.368;11.068;2023-03-24T03:41:14;52.13;;;46.83;;
3811;SDS011;1921;49.368;11.068;2023-03-24T03:43:42;52.50;;;47.30;;
3811;SDS011;1921;49.368;11.068;2023-03-24T03:46:11;51.43;;;46.33;;
3811;SDS011;1921;49.368;11.068;2023-03-24T03:48:37;51.53;;;46.33;;
3811;SDS011;1921;49.368;11.068;2023-03-24T03:51:04;52.70;;;47.20;;
3811;SDS011;1921;49.368;11.068;2023-03-24T03:53:43;53.00;;;47.60;;
3811;SDS011;1921;49.368;11.068;2023-03-24T03:56:18;52.90;;;47.50;;
3811;SDS011;1921;49.368;11.068;2023-03-24T03:58:47;52.20;;;47.03;;
3811;SDS011;1921;49.368;11.068;2023-03-24T04:01:22;52.97;;;47.33;;
3811;SDS011;1921;49.368;11.068;2023-03-24T04:03:57;52.73;;;47.43;;
3811;SDS011;1921;49.368;11.068;2023-03-24T04:12:23;52.37;;;46.97;;
3811;SDS011;1921;49.368;11.068;2023-03-24T04:15:23;52.67;;;47.20;;
3811;SDS011;1921;49.368;11.068;2023-03-24T04:27:11;51.97;;;46.63;;
3811;SDS011;1921;49.368;11.068;2023-03-24T04:29:49;52.27;;;47.00;;
3811;SDS011;1921;49.368;11.068;2023-03-24T04:32:39;53.20;;;47.60;;
3811;SDS011;1921;49.368;11.068;2023-03-24T04:35:25;50.97;;;45.83;;
3811;SDS011;1921;49.368;11.068;2023-03-24T04:38:01;52.73;;;47.27;;
3811;SDS011;1921;49.368;11.068;2023-03-24T04:40:33;52.63;;;47.30;;
3811;SDS011;1921;49.368;11.068;2023-03-24T04:43:06;52.43;;;47.13;;
3811;SDS011;1921;49.368;11.068;2023-03-24T04:45:38;52.23;;;47.00;;
3811;SDS011;1921;49.368;11.068;2023-03-24T04:48:05;52.40;;;47.10;;
3811;SDS011;1921;49.368;11.068;2023-03-24T04:50:36;52.70;;;47.00;;
3811;SDS011;1921;49.368;11.068;2023-03-24T04:53:04;53.47;;;47.97;;
3811;SDS011;1921;49.368;11.068;2023-03-24T04:59:01;57.43;;;46.97;;
3811;SDS011;1921;49.368;11.068;2023-03-24T05:01:26;53.60;;;48.00;;
3811;SDS011;1921;49.368;11.068;2023-03-24T05:03:54;51.90;;;46.50;;
3811;SDS011;1921;49.368;11.068;2023-03-24T05:06:23;53.47;;;47.87;;
3811;SDS011;1921;49.368;11.068;2023-03-24T05:08:50;51.90;;;46.67;;
3811;SDS011;1921;49.368;11.068;2023-03-24T05:11:17;52.50;;;47.17;;
3811;SDS011;1921;49.368;11.068;2023-03-24T05:13:44;51.83;;;46.63;;
3811;SDS011;1921;49.368;11.068;2023-03-24T05:16:11;52.50;;;47.00;;
3811;SDS011;1921;49.368;11.068;2023-03-24T05:18:38;52.37;;;47.07;;
3811;SDS011;1921;49.368;11.068;2023-03-24T05:21:04;52.50;;;47.00;;
3811;SDS011;1921;49.368;11.068;2023-03-24T05:23:30;53.20;;;47.70;;
3811;SDS011;1921;49.368;11.068;2023-03-24T05:25:56;52.43;;;47.03;;
3811;SDS011;1921;49.368;11.068;2023-03-24T05:28:22;58.70;;;47.33;;
3811;SDS011;1921;49.368;11.068;2023-03-24T05:30:48;53.20;;;47.40;;
3811;SDS011;1921;49.368;11.068;2023-03-24T05:33:13;52.03;;;46.73;;
3811;SDS011;1921;49.368;11.068;2023-03-24T05:35:39;53.43;;;47.20;;
3811;SDS011;1921;49.368;11.068;2023-03-24T05:38:05;52.87;;;47.47;;
3811;SDS011;1921;49.368;11.068;2023-03-24T05:40:31;53.13;;;47.60;;
3811;SDS011;1921;49.368;11.068;2023-03-24T05:42:56;52.83;;;47.43;;
3811;SDS011;1921;49.368;11.068;2023-03-24T05:45:22;53.10;;;47.50;;
3811;SDS011;1921;49.368;11.068;2023-03-24T05:47:49;53.37;;;47.70;;
3811;SDS011;1921;49.368;11.068;2023-03-24T05:50:15;52.80;;;47.40;;
3811;SDS011;1921;49.368;11.068;2023-03-24T05:52:41;52.93;;;47.47;;
3811;SDS011;1921;49.368;11.068;2023-03-24T05:55:07;52.40;;;47.10;;
3811;SDS011;1921;49.368;11.068;2023-03-24T05:57:33;52.20;;;46.80;;
3811;SDS011;1921;49.368;11.068;2023-03-24T06:00:00;52.57;;;47.10;;
3811;SDS011;1921;49.368;11.068;2023-03-24T06:02:31;53.00;;;47.47;;
3811;SDS011;1921;49.368;11.068;2023-03-24T06:04:58;53.37;;;47.67;;
3811;SDS011;1921;49.368;11.068;2023-03-24T06:07:25;52.73;;;47.33;;
3811;SDS011;1921;49.368;11.068;2023-03-24T06:09:54;52.93;;;47.33;;
3811;SDS011;1921;49.368;11.068;2023-03-24T06:12:27;53.20;;;47.47;;
3811;SDS011;1921;49.368;11.068;2023-03-24T06:14:54;52.10;;;46.70;;
3811;SDS011;1921;49.368;11.068;2023-03-24T06:17:21;52.60;;;47.10;;
3811;SDS011;1921;49.368;11.068;2023-03-24T06:19:48;52.67;;;47.07;;
3811;SDS011;1921;49.368;11.068;2023-03-24T06:22:15;52.37;;;46.87;;
3811;SDS011;1921;49.368;11.068;2023-03-24T06:24:42;53.20;;;47.50;;
3811;SDS011;1921;49.368;11.068;2023-03-24T06:27:08;52.30;;;46.70;;
3811;SDS011;1921;49.368;11.068;2023-03-24T06:29:35;53.00;;;47.50;;
3811;SDS011;1921;49.368;11.068;2023-03-24T06:32:01;52.37;;;46.97;;
3811;SDS011;1921;49.368;11.068;2023-03-24T06:34:27;53.37;;;47.87;;
3811;SDS011;1921;49.368;11.068;2023-03-24T06:36:53;52.87;;;47.37;;
3811;SDS011;1921;49.368;11.068;2023-03-24T06:39:19;53.50;;;47.90;;
3811;SDS011;1921;49.368;11.068;2023-03-24T06:41:45;53.40;;;47.80;;
3811;SDS011;1921;49.368;11.068;2023-03-24T06:44:12;53.10;;;47.60;;
3811;SDS011;1921;49.368;11.068;2023-03-24T06:46:38;52.80;;;47.30;;
3811;SDS011;1921;49.368;11.068;2023-03-24T06:49:04;53.23;;;47.60;;
3811;SDS011;1921;49.368;11.068;2023-03-24T06:51:30;52.70;;;47.23;;
3811;SDS011;1921;49.368;11.068;2023-03-24T06:53:56;53.40;;;47.70;;
3811;SDS011;1921;49.368;11.068;2023-03-24T06:56:22;53.43;;;47.63;;
3811;SDS011;1921;49.368;11.068;2023-03-24T06:58:47;53.57;;;47.77;;
3811;SDS011;1921;49.368;11.068;2023-03-24T07:01:13;53.40;;;47.87;;
3811;SDS011;1921;49.368;11.068;2023-03-24T07:03:39;53.73;;;48.03;;
3811;SDS011;1921;49.368;11.068;2023-03-24T07:06:08;53.30;;;47.80;;
3811;SDS011;1921;49.368;11.068;2023-03-24T07:08:35;53.37;;;47.57;;
3811;SDS011;1921;49.368;11.068;2023-03-24T07:11:01;54.13;;;48.37;;
3811;SDS011;1921;49.368;11.068;2023-03-24T07:13:27;53.20;;;47.50;;
3811;SDS011;1921;49.368;11.068;2023-03-24T07:15:53;53.60;;;48.00;;
3811;SDS011;1921;49.368;11.068;2023-03-24T07:18:19;53.77;;;48.00;;
3811;SDS011;1921;49.368;11.068;2023-03-24T07:20:45;53.20;;;47.50;;
3811;SDS011;1921;49.368;11.068;2023-03-24T07:23:12;54.23;;;48.40;;
3811;SDS011;1921;49.368;11.068;2023-03-24T07:25:41;53.30;;;47.70;;
3811;SDS011;1921;49.368;11.068;2023-03-24T07:28:07;53.40;;;47.70;;
3811;SDS011;1921;49.368;11.068;2023-03-24T07:30:33;53.77;;;48.03;;
3811;SDS011;1921;49.368;11.068;2023-03-24T07:33:02;53.03;;;47.53;;
3811;SDS011;1921;49.368;11.068;2023-03-24T07:35:30;52.80;;;47.30;;
3811;SDS011;1921;49.368;11.068;2023-03-24T07:37:56;52.50;;;47.10;;
3811;SDS011;1921;49.368;11.068;2023-03-24T07:40:26;55.23;;;47.17;;
3811;SDS011;1921;49.368;11.068;2023-03-24T07:42:52;52.20;;;46.80;;
3811;SDS011;1921;49.368;11.068;2023-03-24T07:45:17;52.83;;;47.23;;
3811;SDS011;1921;49.368;11.068;2023-03-24T07:47:44;53.57;;;47.97;;
3811;SDS011;1921;49.368;11.068;2023-03-24T07:50:12;54.93;;;47.67;;
3811;SDS011;1921;49.368;11.068;2023-03-24T07:52:39;53.60;;;47.90;;
3811;SDS011;1921;49.368;11.068;2023-03-24T07:55:07;53.60;;;47.80;;
3811;SDS011;1921;49.368;11.068;2023-03-24T07:57:36;53.30;;;47.70;;
3811;SDS011;1921;49.368;11.068;2023-03-24T08:00:06;53.83;;;48.03;;
3811;SDS011;1921;49.368;11.068;2023-03-24T08:02:40;53.63;;;47.73;;
3811;SDS011;1921;49.368;11.068;2023-03-24T08:05:07;54.07;;;48.20;;
3811;SDS011;1921;49.368;11.068;2023-03-24T08:07:38;54.60;;;48.47;;
3811;SDS011;1921;49.368;11.068;2023-03-24T08:10:09;53.27;;;47.57;;
3811;SDS011;1921;49.368;11.068;2023-03-24T08:12:37;53.33;;;47.73;;
3811;SDS011;1921;49.368;11.068;2023-03-24T08:15:04;53.00;;;47.40;;
3811;SDS011;1921;49.368;11.068;2023-03-24T08:17:32;53.87;;;48.07;;
3811;SDS011;1921;49.368;11.068;2023-03-24T08:19:59;53.60;;;47.80;;
3811;SDS011;1921;49.368;11.068;2023-03-24T08:22:28;53.50;;;47.57;;
3811;SDS011;1921;49.368;11.068;2023-03-24T08:24:54;53.50;;;47.80;;
3811;SDS011;1921;49.368;11.068;2023-03-24T08:27:20;54.00;;;48.10;;
3811;SDS011;1921;49.368;11.068;2023-03-24T08:29:45;52.97;;;47.37;;
3811;SDS011;1921;49.368;11.068;2023-03-24T08:32:11;53.60;;;47.80;;
3811;SDS011;1921;49.368;11.068;2023-03-24T08:34:37;53.03;;;47.43;;
3811;SDS011;1921;49.368;11.068;2023-03-24T08:37:03;53.40;;;47.70;;
3811;SDS011;1921;49.368;11.068;2023-03-24T08:39:29;53.00;;;47.30;;
3811;SDS011;1921;49.368;11.068;2023-03-24T08:41:56;53.47;;;47.47;;
3811;SDS011;1921;49.368;11.068;2023-03-24T08:44:22;53.13;;;47.53;;
3811;SDS011;1921;49.368;11.068;2023-03-24T08:46:48;52.50;;;47.00;;
3811;SDS011;1921;49.368;11.068;2023-03-24T08:49:13;53.20;;;47.60;;
3811;SDS011;1921;49.368;11.068;2023-03-24T08:51:40;52.87;;;47.30;;
3811;SDS011;1921;49.368;11.068;2023-03-24T08:54:07;52.90;;;47.30;;
3811;SDS011;1921;49.368;11.068;2023-03-24T08:56:33;52.87;;;47.27;;
3811;SDS011;1921;49.368;11.068;2023-03-24T08:58:59;54.57;;;48.10;;
3811;SDS011;1921;49.368;11.068;2023-03-24T09:01:25;52.70;;;47.20;;
3811;SDS011;1921;49.368;11.068;2023-03-24T09:03:51;52.40;;;46.93;;
3811;SDS011;1921;49.368;11.068;2023-03-24T09:06:16;52.80;;;47.30;;
3811;SDS011;1921;49.368;11.068;2023-03-24T09:08:42;53.20;;;47.43;;
3811;SDS011;1921;49.368;11.068;2023-03-24T09:11:12;53.33;;;47.40;;
3811;SDS011;1921;49.368;11.068;2023-03-24T09:13:41;52.50;;;46.90;;
3811;SDS011;1921;49.368;11.068;2023-03-24T09:16:07;53.43;;;47.13;;
3811;SDS011;1921;49.368;11.068;2023-03-24T09:18:33;53.07;;;47.47;;
3811;SDS011;1921;49.368;11.068;2023-03-24T09:20:58;53.03;;;47.43;;
3811;SDS011;1921;49.368;11.068;2023-03-24T09:23:25;52.27;;;46.93;;
3811;SDS011;1921;49.368;11.068;2023-03-24T09:25:53;52.30;;;46.87;;
3811;SDS011;1921;49.368;11.068;2023-03-24T09:28:19;52.43;;;46.97;;
3811;SDS011;1921;49.368;11.068;2023-03-24T09:30:46;52.40;;;46.90;;
3811;SDS011;1921;49.368;11.068;2023-03-24T09:33:12;53.03;;;47.43;;
3811;SDS011;1921;49.368;11.068;2023-03-24T09:35:39;51.83;;;46.53;;
3811;SDS011;1921;49.368;11.068;2023-03-24T09:38:05;51.80;;;46.47;;
3811;SDS011;1921;49.368;11.068;2023-03-24T09:40:32;51.77;;;46.43;;
3811;SDS011;1921;49.368;11.068;2023-03-24T09:43:07;51.83;;;46.43;;
3811;SDS011;1921;49.368;11.068;2023-03-24T09:45:58;52.53;;;47.03;;
3811;SDS011;1921;49.368;11.068;2023-03-24T09:51:21;52.83;;;47.23;;
3811;SDS011;1921;49.368;11.068;2023-03-24T09:54:04;52.40;;;46.80;;
3811;SDS011;1921;49.368;11.068;2023-03-24T09:56:37;52.27;;;46.93;;
3811;SDS011;1921;49.368;11.068;2023-03-24T09:59:18;52.67;;;46.90;;
3811;SDS011;1921;49.368;11.068;2023-03-24T10:01:55;52.83;;;47.23;;
3811;SDS011;1921;49.368;11.068;2023-03-24T10:04:23;52.80;;;47.20;;
3811;SDS011;1921;49.368;11.068;2023-03-24T10:06:54;52.63;;;47.13;;
3811;SDS011;1921;49.368;11.068;2023-03-24T10:09:34;53.83;;;48.13;;
3811;SDS011;1921;49.368;11.068;2023-03-24T10:12:15;53.80;;;48.00;;
3811;SDS011;1921;49.368;11.068;2023-03-24T10:26:46;53.60;;;47.90;;
3811;SDS011;1921;49.368;11.068;2023-03-24T10:29:21;53.00;;;47.30;;
3811;SDS011;1921;49.368;11.068;2023-03-24T10:32:36;53.17;;;47.40;;
3811;SDS011;1921;49.368;11.068;2023-03-24T10:34:47;53.73;;;47.93;;
3811;SDS011;1921;49.368;11.068;2023-03-24T10:37:20;53.00;;;47.33;;
3811;SDS011;1921;49.368;11.068;2023-03-24T10:39:46;53.73;;;47.83;;
3811;SDS011;1921;49.368;11.068;2023-03-24T10:42:17;52.60;;;47.10;;
3811;SDS011;1921;49.368;11.068;2023-03-24T10:44:48;53.40;;;47.60;;
3811;SDS011;1921;49.368;11.068;2023-03-24T10:47:17;53.43;;;47.73;;
3811;SDS011;1921;49.368;11.068;2023-03-24T10:49:51;52.80;;;47.20;;
3811;SDS011;1921;49.368;11.068;2023-03-24T10:52:30;53.43;;;47.70;;
3811;SDS011;1921;49.368;11.068;2023-03-24T10:55:13;53.47;;;47.70;;
3811;SDS011;1921;49.368;11.068;2023-03-24T10:57:43;53.37;;;47.70;;
3811;SDS011;1921;49.368;11.068;2023-03-24T11:00:16;52.90;;;47.30;;
3811;SDS011;1921;49.368;11.068;2023-03-24T11:05:35;53.30;;;47.60;;
3811;SDS011;1921;49.368;11.068;2023-03-24T11:08:16;53.27;;;47.67;;
3811;SDS011;1921;49.368;11.068;2023-03-24T11:10:53;53.47;;;47.70;;
3811;SDS011;1921;49.368;11.068;2023-03-24T11:15:57;52.83;;;47.23;;
3811;SDS011;1921;49.368;11.068;2023-03-24T11:18:37;53.10;;;47.57;;
3811;SDS011;1921;49.368;11.068;2023-03-24T11:21:47;53.30;;;47.50;;
3811;SDS011;1921;49.368;11.068;2023-03-24T11:24:16;53.07;;;47.47;;
3811;SDS011;1921;49.368;11.068;2023-03-24T11:26:45;52.80;;;47.20;;
3811;SDS011;1921;49.368;11.068;2023-03-24T11:29:38;53.37;;;47.73;;
3811;SDS011;1921;49.368;11.068;2023-03-24T11:32:12;53.00;;;47.30;;
3811;SDS011;1921;49.368;11.068;2023-03-24T11:34:45;53.53;;;47.80;;
3811;SDS011;1921;49.368;11.068;2023-03-24T11:37:15;53.27;;;47.57;;
3811;SDS011;1921;49.368;11.068;2023-03-24T11:42:58;53.63;;;47.83;;
3811;SDS011;1921;49.368;11.068;2023-03-24T11:45:28;53.13;;;47.43;;
3811;SDS011;1921;49.368;11.068;2023-03-24T11:48:04;54.03;;;48.17;;
3811;SDS011;1921;49.368;11.068;2023-03-24T11:50:50;53.57;;;47.87;;
3811;SDS011;1921;49.368;11.068;2023-03-24T11:53:20;54.23;;;48.33;;
3811;SDS011;1921;49.368;11.068;2023-03-24T11:59:26;54.20;;;48.30;;
3811;SDS011;1921;49.368;11.068;2023-03-24T12:07:31;67.27;;;48.97;;
3811;SDS011;1921;49.368;11.068;2023-03-24T12:10:29;57.00;;;49.57;;
3811;SDS011;1921;49.368;11.068;2023-03-24T12:13:34;54.90;;;48.90;;
3811;SDS011;1921;49.368;11.068;2023-03-24T12:25:24;57.40;;;48.57;;
3811;SDS011;1921;49.368;11.068;2023-03-24T12:28:38;54.37;;;48.47;;
3811;SDS011;1921;49.368;11.068;2023-03-24T12:42:43;56.70;;;49.20;;
3811;SDS011;1921;49.368;11.068;2023-03-24T12:56:51;54.37;;;48.13;;
3811;SDS011;1921;49.368;11.068;2023-03-24T12:59:33;54.67;;;48.67;;
3811;SDS011;1921;49.368;11.068;2023-03-24T13:02:15;54.23;;;48.23;;
3811;SDS011;1921;49.368;11.068;2023-03-24T13:05:06;54.60;;;48.53;;
3811;SDS011;1921;49.368;11.068;2023-03-24T13:07:41;54.13;;;48.20;;
3811;SDS011;1921;49.368;11.068;2023-03-24T13:10:18;54.20;;;48.10;;
3811;SDS011;1921;49.368;11.068;2023-03-24T13:15:53;54.10;;;48.20;;
3811;SDS011;1921;49.368;11.068;2023-03-24T13:18:34;55.07;;;48.87;;
3811;SDS011;1921;49.368;11.068;2023-03-24T13:21:10;55.33;;;48.47;;
3811;SDS011;1921;49.368;11.068;2023-03-24T13:23:48;55.70;;;48.77;;
3811;SDS011;1921;49.368;11.068;2023-03-24T13:32:24;55.20;;;48.80;;
3811;SDS011;1921;49.368;11.068;2023-03-24T13:35:11;54.10;;;48.20;;
3811;SDS011;1921;49.368;11.068;2023-03-24T13:38:19;54.17;;;48.13;;
3811;SDS011;1921;49.368;11.068;2023-03-24T13:41:06;53.97;;;48.07;;
3811;SDS011;1921;49.368;11.068;2023-03-24T13:44:37;54.20;;;48.30;;
3811;SDS011;1921;49.368;11.068;2023-03-24T13:46:58;54.10;;;48.20;;
3811;SDS011;1921;49.368;11.068;2023-03-24T13:49:39;53.73;;;47.93;;
3811;SDS011;1921;49.368;11.068;2023-03-24T13:52:19;53.77;;;47.93;;
3811;SDS011;1921;49.368;11.068;2023-03-24T13:54:57;53.63;;;47.83;;
3811;SDS011;1921;49.368;11.068;2023-03-24T13:57:26;53.73;;;47.83;;
3811;SDS011;1921;49.368;11.068;2023-03-24T13:59:56;53.77;;;47.97;;
3811;SDS011;1921;49.368;11.068;2023-03-24T14:05:42;53.57;;;47.70;;
3811;SDS011;1921;49.368;11.068;2023-03-24T14:16:41;52.50;;;46.80;;
3811;SDS011;1921;49.368;11.068;2023-03-24T14:19:23;53.17;;;47.57;;
3811;SDS011;1921;49.368;11.068;2023-03-24T14:27:46;51.90;;;46.50;;
3811;SDS011;1921;49.368;11.068;2023-03-24T14:32:46;52.50;;;46.97;;
3811;SDS011;1921;49.368;11.068;2023-03-24T14:35:33;52.23;;;46.77;;
3811;SDS011;1921;49.368;11.068;2023-03-24T14:40:49;51.87;;;46.47;;
3811;SDS011;1921;49.368;11.068;2023-03-24T14:44:05;52.13;;;46.70;;
3811;SDS011;1921;49.368;11.068;2023-03-24T14:48:54;51.57;;;46.20;;
3811;SDS011;1921;49.368;11.068;2023-03-24T14:57:44;51.37;;;46.00;;
3811;SDS011;1921;49.368;11.068;2023-03-24T15:00:29;51.50;;;46.20;;
3811;SDS011;1921;49.368;11.068;2023-03-24T15:06:30;50.43;;;45.33;;
3811;SDS011;1921;49.368;11.068;2023-03-24T15:08:58;51.00;;;45.73;;
3811;SDS011;1921;49.368;11.068;2023-03-24T15:11:31;50.33;;;45.30;;
3811;SDS011;1921;49.368;11.068;2023-03-24T15:14:01;50.67;;;45.47;;
3811;SDS011;1921;49.368;11.068;2023-03-24T15:16:36;50.60;;;45.50;;
3811;SDS011;1921;49.368;11.068;2023-03-24T15:19:14;50.30;;;45.30;;
3811;SDS011;1921;49.368;11.068;2023-03-24T15:21:47;49.50;;;44.70;;
3811;SDS011;1921;49.368;11.068;2023-03-24T15:24:29;49.80;;;44.80;;
3811;SDS011;1921;49.368;11.068;2023-03-24T15:29:33;49.30;;;44.50;;
3811;SDS011;1921;49.368;11.068;2023-03-24T15:32:06;49.63;;;44.73;;
3811;SDS011;1921;49.368;11.068;2023-03-24T15:34:46;49.70;;;44.80;;
3811;SDS011;1921;49.368;11.068;2023-03-24T15:39:56;50.37;;;45.07;;
3811;SDS011;1921;49.368;11.068;2023-03-24T15:42:22;50.27;;;45.27;;
3811;SDS011;1921;49.368;11.068;2023-03-24T15:44:50;50.20;;;45.20;;
3811;SDS011;1921;49.368;11.068;2023-03-24T15:47:21;50.50;;;45.33;;
3811;SDS011;1921;49.368;11.068;2023-03-24T15:49:57;50.17;;;45.27;;
3811;SDS011;1921;49.368;11.068;2023-03-24T15:52:26;50.13;;;45.23;;
3811;SDS011;1921;49.368;11.068;2023-03-24T15:55:06;50.40;;;45.37;;
3811;SDS011;1921;49.368;11.068;2023-03-24T15:57:40;49.93;;;45.03;;
3811;SDS011;1921;49.368;11.068;2023-03-24T16:00:11;49.77;;;44.87;;
3811;SDS011;1921;49.368;11.068;2023-03-24T16:02:49;50.40;;;45.40;;
3811;SDS011;1921;49.368;11.068;2023-03-24T16:05:22;49.67;;;44.87;;
3811;SDS011;1921;49.368;11.068;2023-03-24T16:08:39;49.63;;;44.83;;
3811;SDS011;1921;49.368;11.068;2023-03-24T16:11:04;49.60;;;44.77;;
3811;SDS011;1921;49.368;11.068;2023-03-24T16:13:35;49.50;;;44.70;;
3811;SDS011;1921;49.368;11.068;2023-03-24T16:18:45;49.90;;;45.00;;
3811;SDS011;1921;49.368;11.068;2023-03-24T16:21:24;50.20;;;45.10;;
3811;SDS011;1921;49.368;11.068;2023-03-24T16:23:52;49.53;;;44.63;;
3811;SDS011;1921;49.368;11.068;2023-03-24T16:26:24;49.70;;;44.80;;
3811;SDS011;1921;49.368;11.068;2023-03-24T16:28:59;49.73;;;44.83;;
3811;SDS011;1921;49.368;11.068;2023-03-24T16:31:41;49.60;;;44.80;;
3811;SDS011;1921;49.368;11.068;2023-03-24T16:34:08;49.90;;;44.90;;
3811;SDS011;1921;49.368;11.068;2023-03-24T16:36:34;50.27;;;45.27;;
3811;SDS011;1921;49.368;11.068;2023-03-24T16:39:00;50.03;;;45.13;;
3811;SDS011;1921;49.368;11.068;2023-03-24T16:41:27;50.70;;;45.30;;
3811;SDS011;1921;49.368;11.068;2023-03-24T16:43:53;50.47;;;45.27;;
3811;SDS011;1921;49.368;11.068;2023-03-24T16:46:21;50.50;;;45.50;;
3811;SDS011;1921;49.368;11.068;2023-03-24T16:48:56;50.80;;;45.60;;
3811;SDS011;1921;49.368;11.068;2023-03-24T16:51:23;50.10;;;45.00;;
3811;SDS011;1921;49.368;11.068;2023-03-24T16:53:48;50.20;;;45.20;;
3811;SDS011;1921;49.368;11.068;2023-03-24T16:56:15;50.10;;;45.10;;
3811;SDS011;1921;49.368;11.068;2023-03-24T16:58:43;50.40;;;45.40;;
3811;SDS011;1921;49.368;11.068;2023-03-24T17:01:14;50.47;;;45.47;;
3811;SDS011;1921;49.368;11.068;2023-03-24T17:03:57;50.57;;;45.40;;
3811;SDS011;1921;49.368;11.068;2023-03-24T17:06:28;50.17;;;45.13;;
3811;SDS011;1921;49.368;11.068;2023-03-24T17:08:56;49.90;;;44.90;;
3811;SDS011;1921;49.368;11.068;2023-03-24T17:11:33;50.23;;;45.23;;
3811;SDS011;1921;49.368;11.068;2023-03-24T17:14:02;50.47;;;45.47;;
3811;SDS011;1921;49.368;11.068;2023-03-24T17:16:33;49.90;;;45.00;;
3811;SDS011;1921;49.368;11.068;2023-03-24T17:19:02;50.80;;;45.60;;
3811;SDS011;1921;49.368;11.068;2023-03-24T17:21:32;50.20;;;45.23;;
3811;SDS011;1921;49.368;11.068;2023-03-24T17:24:01;50.37;;;45.20;;
3811;SDS011;1921;49.368;11.068;2023-03-24T17:26:27;50.47;;;45.37;;
3811;SDS011;1921;49.368;11.068;2023-03-24T17:28:53;50.63;;;45.43;;
3811;SDS011;1921;49.368;11.068;2023-03-24T17:31:20;50.10;;;45.10;;
3811;SDS011;1921;49.368;11.068;2023-03-24T17:33:45;50.37;;;45.37;;
3811;SDS011;1921;49.368;11.068;2023-03-24T17:36:12;50.17;;;45.27;;
3811;SDS011;1921;49.368;11.068;2023-03-24T17:38:40;50.43;;;45.27;;
3811;SDS011;1921;49.368;11.068;2023-03-24T17:41:07;50.33;;;45.27;;
3811;SDS011;1921;49.368;11.068;2023-03-24T17:43:33;50.77;;;45.60;;
3811;SDS011;1921;49.368;11.068;2023-03-24T17:45:59;50.40;;;45.40;;
3811;SDS011;1921;49.368;11.068;2023-03-24T17:48:27;50.20;;;45.20;;
3811;SDS011;1921;49.368;11.068;2023-03-24T17:50:54;50.70;;;45.50;;
3811;SDS011;1921;49.368;11.068;2023-03-24T17:53:21;50.80;;;45.70;;
3811;SDS011;1921;49.368;11.068;2023-03-24T17:55:51;50.47;;;45.50;;